Time;durP1;ratioP1;P1;durP2;ratioP2;P2;SDS_P1;SDS_P2;PMS_P1;PMS_P2;Temp;Humidity;BMP_temperature;BMP_pressure;BME280_temperature;BME280_humidity;BME280_pressure;Samples;Min_cycle;Max_cycle;Signal;HPM_P1;HPM_P2
2021/12/25 00:00:35;;;;;;;13.47;12.17;;;8.10;99.90;;;;;;5042508;28;20444;-69
2021/12/25 00:03:02;;;;;;;11.57;10.40;;;8.10;99.90;;;;;;5043819;28;20474;-69
2021/12/25 00:05:30;;;;;;;15.10;11.90;;;8.10;99.90;;;;;;5043804;28;20442;-69
2021/12/25 00:07:57;;;;;;;13.60;11.70;;;8.10;99.90;;;;;;5043207;28;20447;-69
2021/12/25 00:10:24;;;;;;;14.27;12.87;;;8.10;99.90;;;;;;5044057;28;20443;-69
2021/12/25 00:12:53;;;;;;;15.63;14.17;;;8.20;99.90;;;;;;5043260;28;20511;-68
2021/12/25 00:15:20;;;;;;;21.43;19.23;;;8.20;99.90;;;;;;5042900;28;20481;-69
2021/12/25 00:17:47;;;;;;;20.93;18.83;;;8.20;99.90;;;;;;5042503;28;20452;-68
2021/12/25 00:20:14;;;;;;;15.87;14.27;;;8.20;99.90;;;;;;5042220;28;20440;-68
2021/12/25 00:22:42;;;;;;;16.10;14.40;;;8.20;99.90;;;;;;5034424;28;20463;-69
2021/12/25 00:25:10;;;;;;;13.70;12.40;;;8.20;99.90;;;;;;5038203;28;20542;-68
2021/12/25 00:27:49;;;;;;;13.13;11.57;;;8.20;99.90;;;;;;5030501;28;20463;-69
2021/12/25 00:30:25;;;;;;;17.10;13.83;;;8.20;99.90;;;;;;5046972;28;20456;-68
2021/12/25 00:32:57;;;;;;;15.23;13.60;;;8.20;99.90;;;;;;5046324;28;20456;-68
2021/12/25 00:35:24;;;;;;;13.70;12.30;;;8.10;99.90;;;;;;5046638;28;20484;-68
2021/12/25 00:37:53;;;;;;;17.03;15.37;;;8.10;99.90;;;;;;5039060;28;20527;-69
2021/12/25 00:40:19;;;;;;;19.97;17.87;;;8.10;99.90;;;;;;5045090;28;20462;-69
2021/12/25 00:42:47;;;;;;;15.13;13.63;;;8.10;99.90;;;;;;5035444;28;20528;-68
2021/12/25 00:45:14;;;;;;;14.77;13.20;;;8.20;99.90;;;;;;5028823;28;20465;-69
2021/12/25 00:47:41;;;;;;;14.77;13.30;;;8.20;99.90;;;;;;5025866;28;20449;-69
2021/12/25 00:50:09;;;;;;;16.20;13.60;;;8.20;99.90;;;;;;5040700;28;20460;-68
2021/12/25 00:52:36;;;;;;;15.90;13.23;;;8.20;99.90;;;;;;5045685;28;20451;-68
2021/12/25 00:55:07;;;;;;;14.63;13.13;;;8.20;99.90;;;;;;5047219;28;20488;-68
2021/12/25 00:57:34;;;;;;;15.23;13.83;;;8.20;99.90;;;;;;5046114;28;20822;-69
2021/12/25 01:00:01;;;;;;;16.57;14.70;;;8.30;99.90;;;;;;5043148;28;20453;-68
2021/12/25 01:02:28;;;;;;;17.07;14.50;;;8.30;99.90;;;;;;5044363;28;20458;-68
2021/12/25 01:04:55;;;;;;;17.37;14.57;;;8.20;99.90;;;;;;5026529;28;20469;-69
2021/12/25 01:07:22;;;;;;;18.10;16.20;;;8.20;99.90;;;;;;5025231;28;20453;-68
2021/12/25 01:09:49;;;;;;;19.70;17.27;;;8.20;99.90;;;;;;5026696;28;20817;-67
2021/12/25 01:12:17;;;;;;;17.53;15.67;;;8.20;99.90;;;;;;5040825;28;20450;-68
2021/12/25 01:14:48;;;;;;;17.53;15.50;;;8.20;99.90;;;;;;5032259;28;20539;-67
2021/12/25 01:17:58;;;;;;;19.03;14.70;;;8.20;99.90;;;;;;5038757;28;20530;-67
2021/12/25 01:20:43;;;;;;;16.50;14.90;;;8.10;99.90;;;;;;5045677;28;20461;-67
2021/12/25 01:23:53;;;;;;;17.17;14.50;;;8.10;99.90;;;;;;5045343;28;20468;-67
2021/12/25 01:26:49;;;;;;;16.90;15.10;;;8.10;99.90;;;;;;5044627;28;20452;-67
2021/12/25 01:29:30;;;;;;;15.93;14.33;;;8.10;99.90;;;;;;5033693;28;21078;-68
2021/12/25 01:32:19;;;;;;;15.63;14.03;;;8.10;99.90;;;;;;5027369;28;20514;-68
2021/12/25 01:37:46;;;;;;;16.17;13.53;;;8.00;99.90;;;;;;4984631;28;20431;-68
2021/12/25 01:40:31;;;;;;;16.07;14.50;;;8.00;99.90;;;;;;5018665;28;20873;-68
2021/12/25 01:48:30;;;;;;;20.80;17.10;;;8.10;99.90;;;;;;5026754;28;20433;-68
2021/12/25 01:50:57;;;;;;;16.20;14.50;;;8.10;99.90;;;;;;5027485;28;20461;-68
2021/12/25 01:53:24;;;;;;;17.23;15.53;;;8.10;99.90;;;;;;5027121;28;20465;-68
2021/12/25 01:55:51;;;;;;;17.67;15.73;;;8.20;99.90;;;;;;5027181;28;20539;-68
2021/12/25 01:58:18;;;;;;;17.03;15.23;;;8.10;99.90;;;;;;5026605;28;20448;-68
2021/12/25 02:00:51;;;;;;;16.23;14.13;;;8.10;99.90;;;;;;5027053;28;20451;-68
2021/12/25 02:03:20;;;;;;;17.60;15.80;;;8.10;99.90;;;;;;5027310;28;20480;-68
2021/12/25 02:05:47;;;;;;;17.70;14.13;;;8.10;99.90;;;;;;5031198;28;20451;-68
2021/12/25 02:08:14;;;;;;;15.60;14.00;;;8.10;99.90;;;;;;5030629;28;20449;-68
2021/12/25 02:10:41;;;;;;;16.77;14.97;;;8.00;99.90;;;;;;5030957;28;20457;-68
2021/12/25 02:13:10;;;;;;;17.00;15.30;;;8.10;99.90;;;;;;5030589;28;20484;-68
2021/12/25 02:15:37;;;;;;;16.00;14.50;;;8.00;99.90;;;;;;5030478;28;20738;-68
2021/12/25 02:18:12;;;;;;;18.47;15.70;;;8.00;99.90;;;;;;5029800;28;20485;-68
2021/12/25 02:20:49;;;;;;;19.00;16.93;;;8.00;99.90;;;;;;5030846;28;20455;-68
2021/12/25 02:23:21;;;;;;;17.00;15.17;;;8.10;99.90;;;;;;5030100;28;20469;-68
2021/12/25 02:25:49;;;;;;;19.40;16.17;;;8.00;99.90;;;;;;5030926;28;20473;-68
2021/12/25 02:28:17;;;;;;;21.20;16.50;;;8.10;99.90;;;;;;5029882;28;20456;-68
2021/12/25 02:30:46;;;;;;;19.13;15.93;;;8.10;99.90;;;;;;5030267;28;20456;-68
2021/12/25 02:33:13;;;;;;;16.80;15.10;;;8.10;99.90;;;;;;5029922;28;20476;-68
2021/12/25 02:35:41;;;;;;;21.30;18.83;;;8.00;99.90;;;;;;5030679;28;20489;-68
2021/12/25 02:38:08;;;;;;;18.70;15.70;;;8.10;99.90;;;;;;5029082;28;20952;-68
2021/12/25 02:40:35;;;;;;;18.50;16.60;;;8.10;99.90;;;;;;5030350;28;20447;-68
2021/12/25 02:43:02;;;;;;;20.03;17.07;;;8.00;99.90;;;;;;5034814;28;20460;-68
2021/12/25 02:45:29;;;;;;;15.90;14.27;;;8.00;99.90;;;;;;5049358;28;20437;-69
2021/12/25 02:47:58;;;;;;;16.43;14.63;;;8.00;99.90;;;;;;5048967;28;20444;-68
2021/12/25 02:50:28;;;;;;;16.70;14.77;;;8.00;99.90;;;;;;5049765;28;20535;-69
2021/12/25 02:52:58;;;;;;;19.10;17.10;;;8.10;99.90;;;;;;5049351;28;20469;-69
2021/12/25 02:55:26;;;;;;;17.77;15.97;;;8.10;99.90;;;;;;5049847;28;21006;-68
2021/12/25 02:57:52;;;;;;;18.17;16.37;;;8.10;99.90;;;;;;5049254;28;20441;-69
2021/12/25 03:00:22;;;;;;;18.40;15.10;;;8.10;99.90;;;;;;5049577;28;20440;-68
2021/12/25 03:02:49;;;;;;;18.00;15.10;;;8.00;99.90;;;;;;5049536;28;20451;-68
2021/12/25 03:05:17;;;;;;;15.33;13.73;;;8.10;99.90;;;;;;5049664;28;20448;-69
2021/12/25 03:07:45;;;;;;;18.43;16.20;;;8.10;99.90;;;;;;5048964;28;20879;-68
2021/12/25 03:10:17;;;;;;;18.67;15.83;;;8.00;99.90;;;;;;5049505;28;20488;-68
2021/12/25 03:12:50;;;;;;;19.60;15.30;;;8.00;99.90;;;;;;5049025;28;20871;-70
2021/12/25 03:15:27;;;;;;;18.23;15.63;;;8.00;99.90;;;;;;5048474;28;20567;-68
2021/12/25 03:17:54;;;;;;;17.80;14.60;;;8.00;99.90;;;;;;5048943;28;20448;-68
2021/12/25 03:20:21;;;;;;;20.47;16.30;;;8.10;99.90;;;;;;5049147;28;20448;-69
2021/12/25 03:22:48;;;;;;;18.37;15.87;;;8.10;99.90;;;;;;5048955;28;20802;-70
2021/12/25 03:25:18;;;;;;;19.10;16.30;;;8.00;99.90;;;;;;5049395;28;20859;-69
2021/12/25 03:27:47;;;;;;;18.97;16.97;;;8.10;99.90;;;;;;5048453;28;20445;-69
2021/12/25 03:30:16;;;;;;;21.10;17.50;;;8.10;99.90;;;;;;5049204;28;20523;-69
2021/12/25 03:32:43;;;;;;;20.10;16.07;;;8.20;99.90;;;;;;5048852;28;20448;-69
2021/12/25 03:35:10;;;;;;;17.97;15.67;;;8.20;99.90;;;;;;5049069;28;20851;-69
2021/12/25 03:37:36;;;;;;;19.73;15.50;;;8.20;99.90;;;;;;5048225;28;21161;-69
2021/12/25 03:40:04;;;;;;;23.00;17.80;;;8.20;99.90;;;;;;5049375;28;20449;-69
2021/12/25 03:42:33;;;;;;;21.23;17.50;;;8.20;99.90;;;;;;5048943;28;20796;-69
2021/12/25 03:45:00;;;;;;;18.57;16.33;;;8.10;99.90;;;;;;5049197;28;20460;-69
2021/12/25 03:47:31;;;;;;;19.10;15.33;;;8.10;99.90;;;;;;5048108;28;20936;-69
2021/12/25 03:58:18;;;;;;;18.50;14.93;;;8.10;99.90;;;;;;5048001;28;20419;-69
2021/12/25 04:00:47;;;;;;;18.63;15.83;;;8.00;99.90;;;;;;5048990;28;20486;-69
2021/12/25 04:03:22;;;;;;;22.57;18.80;;;8.00;99.90;;;;;;5048154;28;20465;-67
2021/12/25 04:05:49;;;;;;;15.73;14.03;;;7.90;99.90;;;;;;5048700;28;20526;-69
2021/12/25 04:08:20;;;;;;;18.30;16.30;;;7.80;99.90;;;;;;5047690;28;20951;-69
2021/12/25 04:10:53;;;;;;;18.20;15.87;;;7.90;99.90;;;;;;5048879;28;20460;-70
2021/12/25 04:13:21;;;;;;;17.97;16.10;;;7.80;99.90;;;;;;5048317;28;20468;-70
2021/12/25 04:15:48;;;;;;;20.30;17.17;;;7.90;99.90;;;;;;5048441;28;20519;-70
2021/12/25 04:18:15;;;;;;;20.07;16.33;;;7.90;99.90;;;;;;5047543;28;20946;-70
2021/12/25 04:20:42;;;;;;;17.80;15.90;;;7.80;99.90;;;;;;5048165;28;20448;-69
2021/12/25 04:23:15;;;;;;;25.43;17.87;;;7.80;99.90;;;;;;5047674;28;20464;-69
2021/12/25 04:25:42;;;;;;;32.23;17.73;;;7.80;99.90;;;;;;5048246;28;20445;-69
2021/12/25 04:28:16;;;;;;;35.70;18.20;;;7.80;99.90;;;;;;5046443;28;20572;-69
2021/12/25 04:31:04;;;;;;;52.13;21.17;;;7.80;99.90;;;;;;5047754;28;20544;-69
2021/12/25 04:50:13;;;;;;;14.53;12.43;;;7.60;99.90;;;;;;5047737;28;20506;-70
2021/12/25 05:03:45;;;;;;;14.30;12.80;;;7.70;99.90;;;;;;5047102;28;21029;-69
2021/12/25 05:06:12;;;;;;;15.90;13.13;;;7.60;99.90;;;;;;5047499;28;20471;-69
2021/12/25 05:08:39;;;;;;;51.50;17.30;;;7.60;99.90;;;;;;5046856;28;21037;-69
2021/12/25 05:11:06;;;;;;;13.53;11.67;;;7.60;99.90;;;;;;5047764;28;20449;-68
2021/12/25 05:13:33;;;;;;;150.13;21.73;;;7.60;99.90;;;;;;5047105;28;20467;-69
2021/12/25 05:16:02;;;;;;;106.93;18.87;;;7.70;99.90;;;;;;5047499;28;20495;-70
2021/12/25 05:18:29;;;;;;;49.13;15.67;;;7.70;99.90;;;;;;5047212;28;20452;-69
2021/12/25 05:20:57;;;;;;;16.40;13.23;;;7.70;99.90;;;;;;5048151;28;20491;-69
2021/12/25 05:23:24;;;;;;;12.50;11.20;;;7.60;99.90;;;;;;5046890;28;20499;-69
2021/12/25 05:25:51;;;;;;;22.93;15.60;;;7.60;99.90;;;;;;5047367;28;20448;-69
2021/12/25 05:28:24;;;;;;;15.23;11.77;;;7.60;99.90;;;;;;5046672;28;20452;-69
2021/12/25 05:30:51;;;;;;;17.10;13.17;;;7.60;99.90;;;;;;5047177;28;20487;-69
2021/12/25 05:33:18;;;;;;;14.33;12.77;;;7.60;99.90;;;;;;5046787;28;20471;-69
2021/12/25 05:35:45;;;;;;;25.53;14.17;;;7.60;99.90;;;;;;5046983;28;20483;-70
2021/12/25 05:38:15;;;;;;;15.40;13.80;;;7.60;99.90;;;;;;5046769;28;20490;-69
2021/12/25 05:40:42;;;;;;;27.33;15.20;;;7.60;99.90;;;;;;5051216;28;20453;-69
2021/12/25 05:43:09;;;;;;;15.60;12.83;;;7.60;99.90;;;;;;5050814;28;20464;-69
2021/12/25 05:45:36;;;;;;;16.53;14.37;;;7.60;99.90;;;;;;5050780;28;20454;-69
2021/12/25 05:48:03;;;;;;;13.23;11.80;;;7.60;99.90;;;;;;5050229;28;21179;-69
2021/12/25 05:50:30;;;;;;;22.87;14.10;;;7.60;99.90;;;;;;5050551;28;20536;-69
2021/12/25 05:52:57;;;;;;;32.37;17.40;;;7.60;99.90;;;;;;5050759;28;20458;-69
2021/12/25 05:55:26;;;;;;;15.27;13.67;;;7.70;99.90;;;;;;5051025;28;20452;-70
2021/12/25 05:57:53;;;;;;;14.63;13.13;;;7.70;99.90;;;;;;5050060;28;20875;-70
2021/12/25 06:00:21;;;;;;;23.73;14.07;;;7.70;99.90;;;;;;5050915;28;20818;-69
2021/12/25 06:02:48;;;;;;;13.57;12.10;;;7.70;99.90;;;;;;5050105;28;20451;-69
2021/12/25 06:05:16;;;;;;;11.23;9.67;;;7.70;99.90;;;;;;5050586;28;20444;-69
2021/12/25 06:07:43;;;;;;;10.80;9.10;;;7.80;99.90;;;;;;5049842;28;20452;-69
2021/12/25 06:10:11;;;;;;;11.13;9.40;;;7.80;99.90;;;;;;5050705;28;20467;-69
2021/12/25 06:12:40;;;;;;;13.10;9.00;;;7.90;99.90;;;;;;5050032;28;20523;-69
2021/12/25 06:15:08;;;;;;;10.80;9.10;;;7.90;99.90;;;;;;5050802;28;20444;-69
2021/12/25 06:17:35;;;;;;;9.80;8.77;;;8.00;99.90;;;;;;5049552;28;21309;-69
2021/12/25 06:20:03;;;;;;;11.00;9.50;;;8.00;99.90;;;;;;5050823;28;20444;-70
2021/12/25 06:22:30;;;;;;;10.07;9.00;;;8.00;99.90;;;;;;5050606;28;20436;-69
2021/12/25 06:24:56;;;;;;;8.90;7.80;;;8.00;99.90;;;;;;5050453;28;20464;-69
2021/12/25 06:27:24;;;;;;;10.07;7.40;;;8.00;99.90;;;;;;5049812;28;20446;-70
2021/12/25 06:29:52;;;;;;;9.07;8.00;;;8.00;99.90;;;;;;5050226;28;20442;-69
2021/12/25 06:32:20;;;;;;;9.43;7.60;;;8.10;99.90;;;;;;5050166;28;20462;-69
2021/12/25 06:34:47;;;;;;;8.13;6.33;;;8.10;99.90;;;;;;5049703;28;20461;-69
2021/12/25 06:37:14;;;;;;;10.10;7.33;;;8.20;99.90;;;;;;5049372;28;20479;-67
2021/12/25 06:39:41;;;;;;;7.77;6.83;;;8.20;99.90;;;;;;5049959;28;20501;-67
2021/12/25 06:42:09;;;;;;;8.43;7.33;;;8.20;99.90;;;;;;5049872;28;20523;-67
2021/12/25 06:44:37;;;;;;;10.60;9.40;;;8.20;99.90;;;;;;5049233;28;20464;-68
2021/12/25 06:47:06;;;;;;;10.90;8.97;;;8.20;99.90;;;;;;5049311;28;20444;-68
2021/12/25 06:49:33;;;;;;;9.50;7.73;;;8.20;99.90;;;;;;5049430;28;20486;-68
2021/12/25 06:52:00;;;;;;;9.20;7.33;;;8.20;99.90;;;;;;5049139;28;20444;-68
2021/12/25 06:54:26;;;;;;;9.30;7.70;;;8.20;99.90;;;;;;5049243;28;20460;-68
2021/12/25 06:56:54;;;;;;;8.80;7.70;;;8.20;99.90;;;;;;5048542;28;20476;-68
2021/12/25 06:59:22;;;;;;;9.70;7.50;;;8.20;99.90;;;;;;5049435;28;21178;-68
2021/12/25 07:01:50;;;;;;;10.57;8.67;;;8.20;99.90;;;;;;5049216;28;21161;-68
2021/12/25 07:04:18;;;;;;;10.00;8.20;;;8.20;99.90;;;;;;5049086;28;20468;-68
2021/12/25 07:06:45;;;;;;;10.13;7.60;;;8.20;99.90;;;;;;5048238;28;20819;-68
2021/12/25 07:09:11;;;;;;;11.37;8.37;;;8.20;99.90;;;;;;5049283;28;20440;-68
2021/12/25 07:11:39;;;;;;;10.07;8.60;;;8.30;99.90;;;;;;5048972;28;20957;-68
2021/12/25 07:14:09;;;;;;;11.97;8.57;;;8.30;99.90;;;;;;5048761;28;20541;-67
2021/12/25 07:16:36;;;;;;;11.77;9.47;;;8.30;99.90;;;;;;5045356;28;20569;-68
2021/12/25 07:19:03;;;;;;;12.30;9.97;;;8.40;99.90;;;;;;5049139;28;20951;-68
2021/12/25 07:21:31;;;;;;;10.27;9.00;;;8.40;99.90;;;;;;5048988;28;20448;-68
2021/12/25 07:23:58;;;;;;;11.47;9.13;;;8.40;99.90;;;;;;5048436;28;20476;-68
2021/12/25 07:26:28;;;;;;;11.53;9.47;;;8.40;99.90;;;;;;5048349;28;20506;-68
2021/12/25 07:28:55;;;;;;;11.27;8.80;;;8.40;99.90;;;;;;5048911;28;20448;-68
2021/12/25 07:31:22;;;;;;;10.60;8.57;;;8.40;99.90;;;;;;5048921;28;20456;-68
2021/12/25 07:33:49;;;;;;;9.07;8.00;;;8.30;99.90;;;;;;5048211;28;20478;-68
2021/12/25 07:36:16;;;;;;;10.53;8.90;;;8.30;99.90;;;;;;5048030;28;20491;-68
2021/12/25 07:38:44;;;;;;;12.37;9.67;;;8.20;99.90;;;;;;5048653;28;20452;-68
2021/12/25 07:41:11;;;;;;;10.20;8.27;;;8.20;99.90;;;;;;5048807;28;20989;-69
2021/12/25 07:43:38;;;;;;;10.50;8.97;;;8.30;99.90;;;;;;5048041;28;21036;-69
2021/12/25 07:46:06;;;;;;;15.43;9.70;;;8.30;99.90;;;;;;5048528;28;20448;-69
2021/12/25 07:48:34;;;;;;;13.07;8.73;;;8.30;99.90;;;;;;5047599;28;20456;-68
2021/12/25 07:51:02;;;;;;;12.20;9.30;;;8.30;99.90;;;;;;5048225;28;20954;-69
2021/12/25 07:53:31;;;;;;;9.33;8.00;;;8.30;99.90;;;;;;5048082;28;20569;-69
2021/12/25 07:55:59;;;;;;;11.40;10.00;;;8.30;99.90;;;;;;5048261;28;20452;-69
2021/12/25 07:58:27;;;;;;;11.70;10.10;;;8.30;99.90;;;;;;5047714;28;20449;-68
2021/12/25 08:00:54;;;;;;;12.17;8.90;;;8.40;99.90;;;;;;5048026;28;20445;-68
2021/12/25 08:03:21;;;;;;;9.40;8.40;;;8.30;99.90;;;;;;5047940;28;20491;-68
2021/12/25 08:05:49;;;;;;;10.33;8.47;;;8.40;99.90;;;;;;5048286;28;20455;-68
2021/12/25 08:08:16;;;;;;;11.20;7.67;;;8.40;99.90;;;;;;5047639;28;20459;-68
2021/12/25 08:10:43;;;;;;;9.73;8.07;;;8.40;99.90;;;;;;5048148;28;20478;-69
2021/12/25 08:13:13;;;;;;;9.50;8.50;;;8.40;99.90;;;;;;5047727;28;20468;-68
2021/12/25 08:15:41;;;;;;;9.53;7.60;;;8.50;99.90;;;;;;5047954;28;20526;-68
2021/12/25 08:18:08;;;;;;;9.73;8.50;;;8.40;99.90;;;;;;5047065;28;20488;-68
2021/12/25 08:20:36;;;;;;;9.17;7.53;;;8.50;99.90;;;;;;5047963;28;20467;-67
2021/12/25 08:23:04;;;;;;;9.80;7.90;;;8.60;99.90;;;;;;5047291;28;20504;-67
2021/12/25 08:25:31;;;;;;;9.40;6.70;;;8.60;99.90;;;;;;5047823;28;20459;-66
2021/12/25 08:27:58;;;;;;;9.70;8.10;;;8.70;99.90;;;;;;5046677;28;20444;-68
2021/12/25 08:30:27;;;;;;;10.13;8.00;;;8.80;99.90;;;;;;5047433;28;20457;-68
2021/12/25 08:32:57;;;;;;;9.57;7.90;;;8.80;99.90;;;;;;5046994;28;20455;-70
2021/12/25 08:35:26;;;;;;;8.80;7.33;;;8.80;99.90;;;;;;5047609;28;20915;-68
2021/12/25 08:37:53;;;;;;;9.43;6.33;;;8.90;99.90;;;;;;5046439;28;21107;-68
2021/12/25 08:40:20;;;;;;;10.00;6.60;;;9.00;99.90;;;;;;5047808;28;21007;-69
2021/12/25 08:42:52;;;;;;;6.73;5.73;;;9.00;99.90;;;;;;5046774;28;20984;-68
2021/12/25 08:45:41;;;;;;;9.20;7.80;;;9.00;99.90;;;;;;5047740;28;20544;-68
2021/12/25 08:48:12;;;;;;;8.63;7.03;;;9.10;99.90;;;;;;5046484;28;20514;-68
2021/12/25 08:50:40;;;;;;;9.10;7.20;;;9.10;99.90;;;;;;5047325;28;20931;-68
2021/12/25 08:53:07;;;;;;;6.60;5.77;;;9.10;99.90;;;;;;5046888;28;20460;-68
2021/12/25 08:55:34;;;;;;;6.17;5.57;;;9.10;99.90;;;;;;5047668;28;20452;-69
2021/12/25 08:58:01;;;;;;;6.83;5.60;;;9.20;99.90;;;;;;5046504;28;20485;-68
2021/12/25 09:00:28;;;;;;;8.30;5.57;;;9.30;99.90;;;;;;5048016;28;20458;-69
2021/12/25 09:02:55;;;;;;;7.40;5.67;;;9.40;99.90;;;;;;5047746;28;20468;-68
2021/12/25 09:05:23;;;;;;;7.40;5.60;;;9.40;99.90;;;;;;5047259;28;20454;-69
2021/12/25 09:07:51;;;;;;;6.47;5.80;;;9.40;99.90;;;;;;5046456;28;20440;-68
2021/12/25 09:10:18;;;;;;;7.10;6.20;;;9.40;99.90;;;;;;5045976;28;20445;-68
2021/12/25 09:12:45;;;;;;;9.83;5.90;;;9.50;99.90;;;;;;5046961;28;20488;-69
2021/12/25 09:15:14;;;;;;;9.20;6.60;;;9.50;99.90;;;;;;5051028;28;20460;-70
2021/12/25 09:17:42;;;;;;;5.37;4.83;;;9.50;99.90;;;;;;5050755;28;20480;-70
2021/12/25 09:20:10;;;;;;;6.97;5.67;;;9.50;99.90;;;;;;5051455;28;20495;-70
2021/12/25 09:22:39;;;;;;;6.40;5.53;;;9.50;99.90;;;;;;5051008;28;20450;-69
2021/12/25 09:25:06;;;;;;;9.43;5.73;;;9.50;99.90;;;;;;5051534;28;20461;-69
2021/12/25 09:27:33;;;;;;;6.63;5.90;;;9.50;99.90;;;;;;5050615;28;20449;-67
2021/12/25 09:30:00;;;;;;;7.87;6.87;;;9.50;99.90;;;;;;5051538;28;20491;-67
2021/12/25 09:32:27;;;;;;;9.50;6.93;;;9.50;99.90;;;;;;5051104;28;20458;-70
2021/12/25 09:34:54;;;;;;;5.93;5.33;;;9.60;99.90;;;;;;5050898;28;21033;-70
2021/12/25 09:37:21;;;;;;;7.27;6.57;;;9.60;99.90;;;;;;5050719;28;20495;-67
2021/12/25 09:39:49;;;;;;;7.00;5.30;;;9.50;99.90;;;;;;5051883;28;20870;-69
2021/12/25 09:42:16;;;;;;;7.93;6.27;;;9.50;99.90;;;;;;5052136;28;20448;-70
2021/12/25 09:44:43;;;;;;;6.90;5.70;;;9.50;99.90;;;;;;5050817;28;20464;-68
2021/12/25 09:47:10;;;;;;;8.43;6.80;;;9.60;99.90;;;;;;5049979;28;20939;-69
2021/12/25 09:49:37;;;;;;;8.03;6.27;;;9.60;99.90;;;;;;5050532;28;21213;-67
2021/12/25 09:52:05;;;;;;;8.97;7.63;;;9.60;99.90;;;;;;5050988;28;20450;-70
2021/12/25 09:54:32;;;;;;;8.93;7.47;;;9.60;99.90;;;;;;5050315;28;20464;-69
2021/12/25 09:57:00;;;;;;;8.20;6.47;;;9.60;99.90;;;;;;5050084;28;20486;-69
2021/12/25 09:59:27;;;;;;;9.20;6.80;;;9.60;99.90;;;;;;5050581;28;20437;-70
2021/12/25 10:01:57;;;;;;;7.13;6.40;;;9.70;99.90;;;;;;5050673;28;20448;-68
2021/12/25 10:04:35;;;;;;;8.67;6.67;;;9.80;99.90;;;;;;5045375;28;20477;-68
2021/12/25 10:07:23;;;;;;;8.70;6.90;;;9.80;99.90;;;;;;5038224;28;20456;-68
2021/12/25 10:09:59;;;;;;;6.60;4.60;;;9.80;99.90;;;;;;5036774;28;20846;-68
2021/12/25 10:12:37;;;;;;;5.40;3.93;;;9.80;99.90;;;;;;5040444;28;20445;-67
2021/12/25 10:15:05;;;;;;;3.87;2.53;;;9.80;99.90;;;;;;5044904;28;20849;-68
2021/12/25 10:17:33;;;;;;;4.43;3.00;;;9.80;99.90;;;;;;5048549;28;20476;-68
2021/12/25 10:20:02;;;;;;;6.23;3.83;;;9.80;99.90;;;;;;5048643;28;20452;-68
2021/12/25 10:22:30;;;;;;;4.90;3.07;;;9.90;99.90;;;;;;5048606;28;20447;-68
2021/12/25 10:25:10;;;;;;;4.87;2.80;;;9.90;99.90;;;;;;5048419;28;20475;-69
2021/12/25 10:27:47;;;;;;;4.53;2.97;;;9.90;99.90;;;;;;5048393;28;20798;-69
2021/12/25 10:30:14;;;;;;;6.57;3.73;;;10.00;99.90;;;;;;5049137;28;20459;-69
2021/12/25 10:32:41;;;;;;;4.67;4.17;;;10.20;99.90;;;;;;5046947;28;20452;-70
2021/12/25 10:35:17;;;;;;;7.13;4.30;;;10.40;99.90;;;;;;5043109;28;20463;-70
2021/12/25 10:37:45;;;;;;;4.60;3.43;;;10.40;99.90;;;;;;5042562;28;21046;-71
2021/12/25 10:40:23;;;;;;;6.13;3.87;;;10.50;99.90;;;;;;5046705;28;20449;-70
2021/12/25 10:42:51;;;;;;;5.40;4.80;;;10.50;99.90;;;;;;5041065;28;21016;-68
2021/12/25 10:45:18;;;;;;;5.10;4.17;;;10.60;99.90;;;;;;5048032;28;20531;-75
2021/12/25 10:47:45;;;;;;;5.27;3.73;;;10.60;99.90;;;;;;5044223;28;20448;-68
2021/12/25 10:50:14;;;;;;;6.43;3.73;;;10.70;99.90;;;;;;5046435;28;20494;-70
2021/12/25 10:52:46;;;;;;;5.40;3.50;;;10.70;99.90;;;;;;5049844;28;20475;-71
2021/12/25 10:55:18;;;;;;;5.97;3.47;;;10.60;99.90;;;;;;5033310;28;20553;-72
2021/12/25 10:57:46;;;;;;;6.20;2.97;;;10.60;99.90;;;;;;5048014;28;20990;-70
2021/12/25 11:00:30;;;;;;;4.20;2.40;;;10.60;99.90;;;;;;5049280;28;20475;-70
2021/12/25 11:02:59;;;;;;;5.80;2.97;;;10.50;99.90;;;;;;5046720;28;20455;-70
2021/12/25 11:05:29;;;;;;;3.17;2.20;;;10.50;99.90;;;;;;5046599;28;20973;-70
2021/12/25 11:08:11;;;;;;;3.07;2.20;;;10.40;99.90;;;;;;5048237;28;20447;-71
2021/12/25 11:10:46;;;;;;;3.67;2.40;;;10.40;99.90;;;;;;5044268;28;21045;-72
2021/12/25 11:13:18;;;;;;;2.77;2.00;;;10.40;99.90;;;;;;5048974;28;20472;-68
2021/12/25 11:15:47;;;;;;;5.07;2.80;;;10.40;99.90;;;;;;5048988;28;20955;-68
2021/12/25 11:18:15;;;;;;;3.50;2.27;;;10.40;99.90;;;;;;5045576;28;20480;-68
2021/12/25 11:20:44;;;;;;;3.80;1.57;;;10.40;99.90;;;;;;5049242;28;20452;-70
2021/12/25 11:23:12;;;;;;;3.10;2.20;;;10.40;99.90;;;;;;5048643;28;20468;-71
2021/12/25 11:25:43;;;;;;;4.10;2.17;;;10.40;99.90;;;;;;5049210;28;20455;-70
2021/12/25 11:28:12;;;;;;;4.10;2.60;;;10.40;99.90;;;;;;5048554;28;20433;-71
2021/12/25 11:30:42;;;;;;;2.83;1.93;;;10.40;99.90;;;;;;5048756;28;20491;-71
2021/12/25 11:33:11;;;;;;;3.53;2.10;;;10.40;99.90;;;;;;5048500;28;20469;-70
2021/12/25 11:35:38;;;;;;;4.00;2.70;;;10.40;99.90;;;;;;5048527;28;20453;-70
2021/12/25 11:38:08;;;;;;;4.07;2.37;;;10.40;99.90;;;;;;5045452;28;20480;-70
2021/12/25 11:40:40;;;;;;;5.50;2.07;;;10.50;99.90;;;;;;5048376;28;20441;-69
2021/12/25 11:43:07;;;;;;;3.50;2.73;;;10.50;99.90;;;;;;5048367;28;20480;-70
2021/12/25 11:45:37;;;;;;;3.70;2.47;;;10.50;99.90;;;;;;5048423;28;20441;-69
2021/12/25 11:48:15;;;;;;;3.80;2.83;;;10.60;99.90;;;;;;5048125;28;20498;-70
2021/12/25 11:50:46;;;;;;;3.90;2.70;;;10.70;99.90;;;;;;5048918;28;20475;-73
2021/12/25 11:53:19;;;;;;;3.00;2.07;;;10.80;99.90;;;;;;5048502;28;21233;-71
2021/12/25 11:58:43;;;;;;;3.40;2.30;;;10.80;99.90;;;;;;5036601;28;20500;-70
2021/12/25 12:01:35;;;;;;;3.60;2.60;;;11.00;99.90;;;;;;5047830;28;20532;-71
2021/12/25 12:04:05;;;;;;;2.60;1.83;;;11.00;99.90;;;;;;5048398;28;20551;-72
2021/12/25 12:07:13;;;;;;;4.60;2.07;;;11.00;99.90;;;;;;5047817;28;21212;-71
2021/12/25 12:09:56;;;;;;;4.20;2.70;;;11.00;99.90;;;;;;5048262;28;20484;-70
2021/12/25 12:12:25;;;;;;;2.73;2.40;;;10.90;99.90;;;;;;5048395;28;20540;-71
2021/12/25 12:15:12;;;;;;;3.90;2.10;;;10.80;99.90;;;;;;5047919;28;20468;-69
2021/12/25 12:17:39;;;;;;;4.67;2.77;;;10.80;99.90;;;;;;5047079;28;20486;-69
2021/12/25 12:20:09;;;;;;;3.03;2.17;;;10.70;99.90;;;;;;5048338;28;20461;-71
2021/12/25 12:22:56;;;;;;;4.23;3.23;;;10.70;99.90;;;;;;5047793;28;20452;-70
2021/12/25 12:25:31;;;;;;;4.53;3.13;;;10.70;99.90;;;;;;5047851;28;20464;-69
2021/12/25 12:27:59;;;;;;;3.30;2.80;;;10.70;99.90;;;;;;5046758;28;20440;-70
2021/12/25 12:30:42;;;;;;;3.23;2.53;;;10.70;99.90;;;;;;5047645;28;20460;-71
2021/12/25 12:33:32;;;;;;;3.63;2.83;;;10.60;99.90;;;;;;5047467;28;20843;-69
2021/12/25 12:36:01;;;;;;;5.60;3.40;;;10.50;99.90;;;;;;5047674;28;20457;-69
2021/12/25 12:38:38;;;;;;;4.47;3.33;;;10.40;99.90;;;;;;5045929;28;20488;-73
2021/12/25 12:41:16;;;;;;;4.90;3.97;;;10.40;99.90;;;;;;5047084;28;20506;-70
2021/12/25 12:44:03;;;;;;;5.77;3.73;;;10.30;99.90;;;;;;5047492;28;20486;-69
2021/12/25 12:46:58;;;;;;;4.87;3.00;;;10.20;99.90;;;;;;5045577;28;20456;-69
2021/12/25 12:49:27;;;;;;;5.13;3.63;;;10.20;99.90;;;;;;5045330;28;20518;-71
2021/12/25 12:52:18;;;;;;;5.00;3.63;;;10.20;99.90;;;;;;5047309;28;20451;-71
2021/12/25 12:54:48;;;;;;;6.90;4.03;;;10.10;99.90;;;;;;5047120;28;20464;-70
2021/12/25 12:57:21;;;;;;;5.47;4.23;;;10.20;99.90;;;;;;5043741;28;20439;-70
2021/12/25 12:59:51;;;;;;;5.13;3.87;;;10.20;99.90;;;;;;5047418;28;20444;-68
2021/12/25 13:02:22;;;;;;;4.83;3.60;;;10.30;99.90;;;;;;5047423;28;20951;-69
2021/12/25 13:04:52;;;;;;;4.40;3.50;;;10.30;99.90;;;;;;5046976;28;20456;-70
2021/12/25 13:07:22;;;;;;;4.10;3.13;;;10.30;99.90;;;;;;5039648;28;20563;-72
2021/12/25 13:10:06;;;;;;;6.53;3.50;;;10.30;99.90;;;;;;5044454;28;20559;-71
2021/12/25 13:12:42;;;;;;;5.63;4.23;;;10.20;99.90;;;;;;5045487;28;20631;-72
2021/12/25 13:15:14;;;;;;;7.30;3.77;;;10.20;99.90;;;;;;5038097;28;20542;-70
2021/12/25 13:17:48;;;;;;;5.07;3.80;;;10.20;99.90;;;;;;5046375;28;20988;-68
2021/12/25 13:20:16;;;;;;;6.00;4.10;;;10.10;99.90;;;;;;5046063;28;20445;-71
2021/12/25 13:22:55;;;;;;;6.70;4.40;;;10.10;99.90;;;;;;5046924;28;20825;-71
2021/12/25 13:25:22;;;;;;;6.47;5.00;;;10.10;99.90;;;;;;5046208;28;20563;-71
2021/12/25 13:27:55;;;;;;;5.73;3.80;;;10.00;99.90;;;;;;5045532;28;20567;-72
2021/12/25 13:30:21;;;;;;;5.43;3.70;;;9.90;99.90;;;;;;5047541;28;20451;-74
2021/12/25 13:32:48;;;;;;;6.97;4.80;;;9.90;99.90;;;;;;5046993;28;21148;-70
2021/12/25 13:35:16;;;;;;;4.77;4.07;;;9.80;99.90;;;;;;5047416;28;20523;-69
2021/12/25 13:37:45;;;;;;;5.73;4.43;;;9.70;99.90;;;;;;5046020;28;20454;-69
2021/12/25 13:40:15;;;;;;;5.53;4.70;;;9.70;99.90;;;;;;5047182;28;20804;-72
2021/12/25 13:42:42;;;;;;;5.27;4.60;;;9.60;99.90;;;;;;5047192;28;20449;-72
2021/12/25 13:45:10;;;;;;;6.03;4.57;;;9.60;99.90;;;;;;5047939;28;20482;-75
2021/12/25 13:47:39;;;;;;;6.13;4.80;;;9.60;99.90;;;;;;5046265;28;20456;-70